Orbital elements of FENGYUN 1C DEB
| Launched | 9 May 1999 |
| Flight ended | – |
| Launch site | Taiyuan Space Center, PRC |
| Owner | People's Republic of China |
| NORAD ID | 30198 |
| Date fetched |
Epoch osculation |
Inc. [°] |
Ecc. | RA asc node [hr] |
Arg Peri. [°] |
Mean anom [°] |
Mean motion [rev/day] |
Abs. mag |
| Date fetched |
Epoch osculation |
Inc. [°] |
Ecc. | RA asc node [hr] |
Arg Peri. [°] |
Mean anom [°] |
Mean motion [rev/day] |
Abs. mag |
| 2026 May 05 17:57 | 2026 May 05 07:44:06 | 98.4640 | 0.01049 | 17.4796 | 119.8871 | 271.4814 | 14.52327 | – |
| 2026 May 04 17:57 | 2026 Apr 30 08:47:50 | 98.4623 | 0.01050 | 17.1465 | 134.8790 | 271.4814 | 14.52327 | – |
| 2026 May 03 17:57 | 2026 Apr 30 08:47:50 | 98.4623 | 0.01050 | 17.1465 | 134.8790 | 271.4814 | 14.52327 | – |
| 2026 May 02 17:57 | 2026 Apr 30 08:47:50 | 98.4623 | 0.01050 | 17.1465 | 134.8790 | 271.4814 | 14.52327 | – |
| 2026 May 01 17:56 | 2026 Apr 30 08:47:50 | 98.4623 | 0.01050 | 17.1465 | 134.8790 | 271.4814 | 14.52327 | – |
| 2026 Apr 30 17:56 | 2026 Apr 30 08:47:50 | 98.4623 | 0.01050 | 17.1465 | 134.8790 | 271.4814 | 14.52327 | – |
| 2026 Apr 29 17:57 | 2026 Apr 24 07:19:13 | 98.4615 | 0.01050 | 16.7392 | 153.2295 | 271.4814 | 14.52327 | – |
| 2026 Apr 28 17:56 | 2026 Apr 24 07:19:13 | 98.4615 | 0.01050 | 16.7392 | 153.2295 | 271.4814 | 14.52327 | – |
| 2026 Apr 27 17:58 | 2026 Apr 24 07:19:13 | 98.4615 | 0.01050 | 16.7392 | 153.2295 | 271.4814 | 14.52327 | – |
| 2026 Apr 26 17:58 | 2026 Apr 24 07:19:13 | 98.4615 | 0.01050 | 16.7392 | 153.2295 | 271.4814 | 14.52327 | – |
| 2026 Apr 25 17:58 | 2026 Apr 24 07:19:13 | 98.4615 | 0.01050 | 16.7392 | 153.2295 | 271.4814 | 14.52327 | – |
| 2026 Apr 24 17:59 | 2026 Apr 24 07:19:13 | 98.4615 | 0.01050 | 16.7392 | 153.2295 | 271.4814 | 14.52327 | – |
| 2026 Apr 23 17:57 | 2026 Apr 19 08:05:22 | 98.4611 | 0.01048 | 16.4054 | 168.2559 | 271.4814 | 14.52327 | – |
| 2026 Apr 22 17:57 | 2026 Apr 19 08:05:22 | 98.4611 | 0.01048 | 16.4054 | 168.2559 | 271.4814 | 14.52327 | – |
| 2026 Apr 21 17:57 | 2026 Apr 19 08:05:22 | 98.4611 | 0.01048 | 16.4054 | 168.2559 | 271.4814 | 14.52327 | – |
| 2026 Apr 20 17:57 | 2026 Apr 19 08:05:22 | 98.4611 | 0.01048 | 16.4054 | 168.2559 | 271.4814 | 14.52327 | – |
| 2026 Apr 19 17:58 | 2026 Apr 19 08:05:22 | 98.4611 | 0.01048 | 16.4054 | 168.2559 | 271.4814 | 14.52327 | – |
| 2026 Apr 18 17:56 | 2026 Apr 13 01:44:06 | 98.4588 | 0.01046 | 15.9846 | 187.2352 | 271.4814 | 14.52327 | – |
| 2026 Apr 16 17:57 | 2026 Apr 13 01:44:06 | 98.4588 | 0.01046 | 15.9846 | 187.2352 | 271.4814 | 14.52327 | – |
| 2026 Apr 14 17:57 | 2026 Apr 13 01:44:06 | 98.4588 | 0.01046 | 15.9846 | 187.2352 | 271.4814 | 14.52327 | – |
| 2026 Apr 13 17:57 | 2026 Apr 13 01:44:06 | 98.4588 | 0.01046 | 15.9846 | 187.2352 | 271.4814 | 14.52327 | – |
| 2026 Apr 12 17:57 | 2026 Apr 08 15:41:03 | 98.4588 | 0.01043 | 15.6878 | 200.6903 | 271.4814 | 14.52327 | – |
| 2026 Apr 11 17:57 | 2026 Apr 08 15:41:03 | 98.4588 | 0.01043 | 15.6878 | 200.6903 | 271.4814 | 14.52327 | – |
| 2026 Apr 10 17:58 | 2026 Apr 08 15:41:03 | 98.4588 | 0.01043 | 15.6878 | 200.6903 | 271.4814 | 14.52327 | – |
| 2026 Apr 09 18:01 | 2026 Apr 08 15:41:03 | 98.4588 | 0.01043 | 15.6878 | 200.6903 | 271.4814 | 14.52327 | – |
| 2026 Apr 08 17:57 | 2026 Apr 08 15:41:03 | 98.4588 | 0.01043 | 15.6878 | 200.6903 | 271.4814 | 14.52327 | – |